Aérodrome :
LOGIN :

S'inscrire | Disclaimer

   EN    FR    IT 

 










Légende :    VFR   VFR Marginal   IFR   IFR Intensif   IFR Très Intensif
Visi : 
Plafond : 
>= 8 km
>= 3000ft
5 à 8 km
1000 à 3000 ft
1500m à 5 km
500 à 1000 ft
800 à 1500m
200 à 500 ft
< 800m
< 200 ft
Symboles :   Orages  Brouillard  Fortes neiges  Fortes précipitations  Vent > 20 kt
SIGMETs :   Divers  Orages  Givrage  Turbulence  Onde Orograph.  Cendres Volcan.






- Altitude de l'aérodrome : 1649 ft
- Code IATA : HHN


EDFH - Frankfurt-Hahn Rhineland-Palatinate

DERNIER METAR :
  • 190550Z 27006KT 0700 R21/P2000D FG BKN001 02/02 Q1014

METARs EXPIRÉS :
  • 190520Z 28005KT 0300 R21/0550N FG VV/// 02/02 Q1014
  • 190450Z 27005KT 250V310 0600 R21/1200N FG BKN001 02/02 Q1014
  • 190420Z 24004KT 4000 BR BKN002 02/02 Q1014
  • 190350Z 26005KT 2000 BR BKN002 02/02 Q1013
  • 190320Z 26005KT 3000 BR BKN002 02/02 Q1013
  • 190250Z 29007KT 4000 -RA BR BKN002 02/02 Q1013

TAF TAF EDFH
Valide du 19 à 06h jusqu'au 20 à 06h UTC


190500Z 1906/2006 26006KT 6000 OVC005
TEMPO 1906/1910 3000 BR OVC003
PROB30
TEMPO 1906/1909 0500 FG OVC001
BECMG 1909/1913 SCT005 BKN012
BECMG 1913/1916 SCT012
BECMG 1922/1924 VRB03KT
TEMPO 1922/2006 3000 BR BKN010
PROB30
TEMPO 2000/2006 1500 BCFG BKN005



MET'MAP, la Météo Aéronautique d'un coup d'oeil ! - Copyright ORBIFLY Décembre 2007 - Disclaimer

ORBIFLY MET'MAP TEAM :

Programmation & Développement : Alexandra Zaïnal
Conception & Développement : Baudouin d'Aumeries
Co-Programmation & Développement : Marc-Olivier Méhu
Soutien technique & logistique : Manuel Goepfert

Contact : metmap@orbifly.com




SOURCES & CREDITS :

   NOAA